createdAt,value
2022-09-23T00:02:15.231Z,78.65
2022-09-23T00:04:48.152Z,78.43
2022-09-23T00:07:22.118Z,78.32
2022-09-23T00:09:56.642Z,78.19
2022-09-23T00:12:29.762Z,78.22
2022-09-23T00:15:03.034Z,78.24
2022-09-23T00:17:36.252Z,78.25
2022-09-23T00:20:10.811Z,78.27
2022-09-23T00:22:43.848Z,78.26
2022-09-23T00:25:16.728Z,78.12
2022-09-23T00:27:49.671Z,78.16
2022-09-23T00:30:23.990Z,78.13
2022-09-23T00:32:57.371Z,78.21
2022-09-23T00:35:30.440Z,78.24
2022-09-23T00:38:03.257Z,78.26
2022-09-23T00:40:36.849Z,78.15
2022-09-23T00:43:12.058Z,78.05
2022-09-23T00:45:49.522Z,77.98
2022-09-23T00:48:23.963Z,77.92
2022-09-23T00:50:57.868Z,77.81
2022-09-23T00:53:31.013Z,77.71
2022-09-23T00:56:10.868Z,77.88
2022-09-23T00:58:46.528Z,77.95
2022-09-23T01:01:19.947Z,78.03
2022-09-23T01:03:54.875Z,77.91
2022-09-23T01:06:31.735Z,78.04
2022-09-23T01:09:04.738Z,78.21
2022-09-23T01:11:59.732Z,78.37
2022-09-23T01:15:04.573Z,79.36
2022-09-23T01:18:19.964Z,78.97
2022-09-23T01:21:01.241Z,78.67
2022-09-23T01:24:10.529Z,78.68
2022-09-23T01:26:57.348Z,78.69
2022-09-23T01:29:46.453Z,78.53
2022-09-23T01:32:36.189Z,78.42
2022-09-23T01:35:08.678Z,78.23
2022-09-23T01:38:12.305Z,77.98
2022-09-23T01:41:06.951Z,77.90
2022-09-23T01:43:48.525Z,78.14
2022-09-23T01:46:34.057Z,77.92
2022-09-23T01:49:20.760Z,77.85
2022-09-23T01:52:00.982Z,77.85
2022-09-23T01:54:45.780Z,77.91
2022-09-23T01:57:46.844Z,77.84
2022-09-23T02:00:22.913Z,77.77
2022-09-23T02:03:10.751Z,77.77
2022-09-23T02:05:59.926Z,77.80
2022-09-23T02:08:49.546Z,78.01
2022-09-23T02:11:22.471Z,78.26
2022-09-23T02:14:00.935Z,78.31
2022-09-23T02:16:48.502Z,78.48
2022-09-23T02:19:45.253Z,78.64
2022-09-23T02:22:30.917Z,78.58
2022-09-23T02:25:04.420Z,78.32
2022-09-23T02:27:58.332Z,78.33
2022-09-23T02:30:40.774Z,78.69
2022-09-23T02:33:27.886Z,78.91
2022-09-23T02:36:39.455Z,79.38
2022-09-23T02:39:15.537Z,79.36
2022-09-23T02:42:11.352Z,78.99
2022-09-23T02:44:43.985Z,78.88
2022-09-23T02:47:17.210Z,78.63
2022-09-23T02:49:49.849Z,78.64
2022-09-23T02:52:22.566Z,78.80
2022-09-23T02:54:56.542Z,78.85
2022-09-23T02:57:29.066Z,78.78
2022-09-23T03:00:02.529Z,78.74
2022-09-23T03:02:58.385Z,78.71
2022-09-23T03:05:36.746Z,78.47
2022-09-23T03:08:26.572Z,78.33
2022-09-23T03:11:13.983Z,78.22
2022-09-23T03:14:05.646Z,78.99
2022-09-23T03:17:04.973Z,78.71
2022-09-23T03:19:43.039Z,78.59
2022-09-23T03:22:34.214Z,78.45
2022-09-23T03:25:13.473Z,78.26
2022-09-23T03:27:47.244Z,77.98
2022-09-23T03:30:22.063Z,78.19
2022-09-23T03:32:56.707Z,78.02
2022-09-23T03:35:33.313Z,77.99
2022-09-23T03:38:17.230Z,77.93
2022-09-23T03:40:51.483Z,77.79
2022-09-23T03:43:24.657Z,77.76
2022-09-23T03:45:58.712Z,77.65
2022-09-23T03:48:31.358Z,77.62
2022-09-23T03:51:26.533Z,77.43
2022-09-23T03:53:59.200Z,77.51
2022-09-23T03:56:31.864Z,77.43
2022-09-23T03:59:04.587Z,77.22
2022-09-23T04:01:37.707Z,77.13
2022-09-23T04:04:10.400Z,77.10
2022-09-23T04:06:42.969Z,77.07
2022-09-23T04:09:15.882Z,77.14
2022-09-23T04:11:50.339Z,77.14
2022-09-23T04:14:23.819Z,77.08
2022-09-23T04:16:56.719Z,77.06
2022-09-23T04:19:29.323Z,76.97
2022-09-23T04:22:02.833Z,77.01
2022-09-23T04:24:35.702Z,76.99
2022-09-23T04:27:09.308Z,76.98
2022-09-23T04:29:42.119Z,76.99
2022-09-23T04:32:15.074Z,76.93
2022-09-23T04:34:48.165Z,76.72
2022-09-23T04:37:21.032Z,76.80
2022-09-23T04:39:54.856Z,76.69
2022-09-23T04:42:31.298Z,76.65
2022-09-23T04:45:05.907Z,76.52
2022-09-23T04:47:38.457Z,76.55
2022-09-23T04:50:12.738Z,76.45
2022-09-23T04:52:45.408Z,76.36
2022-09-23T04:55:18.751Z,76.49
2022-09-23T04:57:51.913Z,76.45
2022-09-23T05:00:25.253Z,76.48
2022-09-23T05:02:58.849Z,76.44
2022-09-23T05:05:32.700Z,76.40
2022-09-23T05:08:05.692Z,76.43
2022-09-23T05:10:45.082Z,76.37
2022-09-23T05:13:18.595Z,76.39
2022-09-23T05:15:51.760Z,76.31
2022-09-23T05:18:25.304Z,76.30
2022-09-23T05:20:59.032Z,76.22
2022-09-23T05:23:32.587Z,76.15
2022-09-23T05:26:11.233Z,76.05
2022-09-23T05:28:44.839Z,76.01
2022-09-23T05:31:20.807Z,76.04
2022-09-23T05:34:02.346Z,75.72
2022-09-23T05:36:38.676Z,75.68
2022-09-23T05:39:12.699Z,75.81
2022-09-23T05:41:46.967Z,75.89
2022-09-23T05:44:20.289Z,75.39
2022-09-23T05:46:55.107Z,74.63
2022-09-23T05:49:55.281Z,74.30
2022-09-23T05:52:26.169Z,74.25
2022-09-23T05:54:59.359Z,74.39
2022-09-23T05:57:33.217Z,74.49
2022-09-23T06:00:06.917Z,74.74
2022-09-23T06:02:50.212Z,74.87
2022-09-23T06:05:23.889Z,74.95
2022-09-23T06:07:58.879Z,74.99
2022-09-23T06:10:31.809Z,75.03
2022-09-23T06:13:04.534Z,74.55
2022-09-23T06:15:37.489Z,74.38
2022-09-23T06:18:11.215Z,73.72
2022-09-23T06:20:45.225Z,73.61
2022-09-23T06:23:20.263Z,73.58
2022-09-23T06:25:56.725Z,73.40
2022-09-23T06:28:36.410Z,73.12
2022-09-23T06:31:17.937Z,73.33
2022-09-23T06:34:03.730Z,73.34
2022-09-23T06:36:47.087Z,73.23
2022-09-23T06:39:20.444Z,72.65
2022-09-23T06:41:53.919Z,72.48
2022-09-23T06:44:29.498Z,72.61
2022-09-23T06:47:03.629Z,71.89
2022-09-23T06:49:38.861Z,71.82
2022-09-23T06:52:12.064Z,71.17
2022-09-23T06:54:45.976Z,71.03
2022-09-23T06:57:19.767Z,69.85
2022-09-23T06:59:53.332Z,68.95
2022-09-23T07:02:26.938Z,68.82
2022-09-23T07:05:00.089Z,67.86
2022-09-23T07:07:37.923Z,67.04
2022-09-23T07:10:11.324Z,66.41
2022-09-23T07:12:44.732Z,66.27
2022-09-23T07:15:17.785Z,65.97
2022-09-23T07:17:51.339Z,65.86
2022-09-23T07:20:25.482Z,65.72
2022-09-23T07:22:58.695Z,65.82
2022-09-23T07:25:34.907Z,65.63
2022-09-23T07:28:08.538Z,64.80
2022-09-23T07:30:55.612Z,64.80
2022-09-23T07:33:35.179Z,64.01
2022-09-23T07:36:14.691Z,64.32
2022-09-23T07:38:50.107Z,64.02
2022-09-23T07:41:24.425Z,62.64
2022-09-23T07:43:59.639Z,62.69
2022-09-23T07:46:35.499Z,61.66
2022-09-23T07:49:10.890Z,61.75
2022-09-23T07:51:48.685Z,61.79
2022-09-23T07:54:26.412Z,61.99
2022-09-23T07:57:00.957Z,62.15
2022-09-23T07:59:34.371Z,62.30
2022-09-23T08:02:08.080Z,62.71
2022-09-23T08:04:44.000Z,63.08
2022-09-23T08:07:17.473Z,63.20
2022-09-23T08:09:58.003Z,63.39
2022-09-23T08:12:32.381Z,63.78
2022-09-23T08:15:05.470Z,63.64
2022-09-23T08:17:39.151Z,63.29
2022-09-23T08:20:33.102Z,62.89
2022-09-23T08:23:06.374Z,62.27
2022-09-23T08:25:39.664Z,62.27
2022-09-23T08:28:14.826Z,62.14
2022-09-23T08:30:50.298Z,61.88
2022-09-23T08:33:24.060Z,61.84
2022-09-23T08:36:03.268Z,60.83
2022-09-23T08:38:38.385Z,60.54
2022-09-23T08:41:39.271Z,59.68
2022-09-23T08:44:26.038Z,59.66
2022-09-23T08:47:15.146Z,59.46
2022-09-23T08:49:57.649Z,58.89
2022-09-23T08:52:48.680Z,58.50
2022-09-23T08:55:24.940Z,58.17
2022-09-23T08:58:27.668Z,56.87
2022-09-23T09:01:18.745Z,56.63
2022-09-23T09:04:31.690Z,57.02
2022-09-23T09:10:29.218Z,57.14
2022-09-23T09:13:23.298Z,56.94
2022-09-23T09:16:15.826Z,58.23
2022-09-23T09:19:02.616Z,59.94
2022-09-23T09:21:42.016Z,60.56
2022-09-23T09:24:34.414Z,61.15
2022-09-23T09:27:15.377Z,61.90
2022-09-23T09:29:56.321Z,62.00
2022-09-23T09:32:34.579Z,62.10
2022-09-23T09:35:33.925Z,61.99
2022-09-23T09:38:08.528Z,61.10
2022-09-23T09:40:49.669Z,60.76
2022-09-23T09:43:24.354Z,59.41
2022-09-23T09:46:29.974Z,59.63
2022-09-23T09:49:23.876Z,59.19
2022-09-23T09:52:30.248Z,57.54
2022-09-23T09:55:25.891Z,56.91
2022-09-23T09:58:05.209Z,57.37
2022-09-23T10:00:48.146Z,57.06
2022-09-23T10:03:39.859Z,57.27
2022-09-23T10:06:24.999Z,57.44
2022-09-23T10:09:14.690Z,58.08
2022-09-23T10:12:15.705Z,58.30
2022-09-23T10:14:54.013Z,57.90
2022-09-23T10:17:32.740Z,57.69
2022-09-23T10:20:16.985Z,57.31
2022-09-23T10:22:50.246Z,56.30
2022-09-23T10:25:28.173Z,55.95
2022-09-23T10:28:21.547Z,55.50
2022-09-23T10:31:26.756Z,55.04
2022-09-23T10:34:05.476Z,54.33
2022-09-23T10:36:43.828Z,52.81
2022-09-23T10:39:37.651Z,52.80
2022-09-23T10:42:46.669Z,52.39
2022-09-23T10:45:43.580Z,52.06
2022-09-23T10:48:37.710Z,50.75
2022-09-23T10:51:42.566Z,51.15
2022-09-23T10:54:55.664Z,51.86
2022-09-23T10:57:42.825Z,51.21
2022-09-23T11:00:42.702Z,50.15
2022-09-23T11:03:52.550Z,49.73
2022-09-23T11:06:49.842Z,48.74
2022-09-23T11:09:48.317Z,48.40
2022-09-23T11:12:51.699Z,48.57
2022-09-23T11:15:35.503Z,49.29
2022-09-23T11:18:43.442Z,49.31
2022-09-23T11:21:45.183Z,49.72
2022-09-23T11:24:53.910Z,49.61
2022-09-23T11:27:58.187Z,49.24
2022-09-23T11:30:48.885Z,49.33
2022-09-23T11:33:46.560Z,49.86
2022-09-23T11:36:46.964Z,49.37
2022-09-23T11:39:31.810Z,49.62
2022-09-23T11:42:14.678Z,49.65
2022-09-23T11:45:16.263Z,49.31
2022-09-23T11:47:56.937Z,49.19
2022-09-23T11:50:51.348Z,49.40
2022-09-23T11:53:33.174Z,49.68
2022-09-23T11:56:34.235Z,49.01
2022-09-23T11:59:43.583Z,47.98
2022-09-23T12:02:31.225Z,47.70
2022-09-23T12:05:20.673Z,47.88
2022-09-23T12:08:18.779Z,47.05
2022-09-23T12:11:03.512Z,48.33
2022-09-23T12:13:57.011Z,48.67
2022-09-23T12:16:49.634Z,48.47
2022-09-23T12:19:40.196Z,49.22
2022-09-23T12:22:50.219Z,49.34
2022-09-23T12:26:03.792Z,49.24
2022-09-23T12:28:45.623Z,48.49
2022-09-23T12:31:33.033Z,49.12
2022-09-23T12:34:30.990Z,49.10
2022-09-23T12:37:07.375Z,49.46
2022-09-23T12:39:41.674Z,49.51
2022-09-23T12:42:28.876Z,49.56
2022-09-23T12:45:35.553Z,49.84
2022-09-23T12:48:46.438Z,50.00
2022-09-23T12:51:22.259Z,50.46
2022-09-23T12:53:59.015Z,50.92
2022-09-23T12:56:56.454Z,49.79
2022-09-23T12:59:32.291Z,50.40
2022-09-23T13:02:36.704Z,50.60
2022-09-23T13:05:34.744Z,50.70
2022-09-23T13:08:33.211Z,51.25
2022-09-23T13:11:10.384Z,51.12
2022-09-23T13:13:48.075Z,51.08
2022-09-23T13:17:00.107Z,51.16
2022-09-23T13:19:38.030Z,51.12
2022-09-23T13:22:14.002Z,51.36
2022-09-23T13:25:09.690Z,51.67
2022-09-23T13:27:48.311Z,51.73
2022-09-23T13:30:27.218Z,51.55
2022-09-23T13:33:06.888Z,51.32
2022-09-23T13:35:43.862Z,51.72
2022-09-23T13:38:30.127Z,51.90
2022-09-23T13:41:17.005Z,51.75
2022-09-23T13:43:54.192Z,51.87
2022-09-23T13:46:37.441Z,51.73
2022-09-23T13:49:25.329Z,51.60
2022-09-23T13:52:00.631Z,51.77
2022-09-23T13:54:37.224Z,51.57
2022-09-23T13:57:29.983Z,51.22
2022-09-23T14:00:20.238Z,51.02
2022-09-23T14:02:56.357Z,51.08
2022-09-23T14:05:32.780Z,51.14
2022-09-23T14:08:06.138Z,51.06
2022-09-23T14:10:44.010Z,51.13
2022-09-23T14:13:34.738Z,50.71
2022-09-23T14:16:12.384Z,51.10
2022-09-23T14:18:50.660Z,51.63
2022-09-23T14:21:40.250Z,51.46
2022-09-23T14:24:39.616Z,51.65
2022-09-23T14:27:32.215Z,51.80
2022-09-23T14:30:06.612Z,51.89
2022-09-23T14:32:42.582Z,51.96
2022-09-23T14:35:27.320Z,51.98
2022-09-23T14:38:19.633Z,51.88
2022-09-23T14:41:18.705Z,51.90
2022-09-23T14:44:07.395Z,51.75
2022-09-23T14:46:41.421Z,52.00
2022-09-23T14:49:14.324Z,52.10
2022-09-23T14:52:01.590Z,52.05
2022-09-23T14:54:47.764Z,52.16
2022-09-23T14:57:32.223Z,52.20
2022-09-23T15:00:18.061Z,52.47
2022-09-23T15:03:16.555Z,52.60
2022-09-23T15:05:51.277Z,52.73
2022-09-23T15:08:27.895Z,52.88
2022-09-23T15:11:07.008Z,53.09
2022-09-23T15:13:45.004Z,53.25
2022-09-23T15:16:25.362Z,53.28
2022-09-23T15:19:01.042Z,53.41
2022-09-23T15:21:47.579Z,53.37
2022-09-23T15:24:46.014Z,53.50
2022-09-23T15:27:35.158Z,53.52
2022-09-23T15:30:19.912Z,53.61
2022-09-23T15:32:53.109Z,53.73
2022-09-23T15:35:27.371Z,53.97
2022-09-23T15:38:02.210Z,54.13
2022-09-23T15:40:37.689Z,54.26
2022-09-23T15:43:27.762Z,54.42
2022-09-23T15:46:06.927Z,54.49
2022-09-23T15:48:46.277Z,54.62
2022-09-23T15:51:20.074Z,54.80
2022-09-23T15:53:55.962Z,54.79
2022-09-23T15:56:28.911Z,54.95
2022-09-23T15:59:01.630Z,55.15
2022-09-23T16:01:38.928Z,55.31
2022-09-23T16:04:17.040Z,55.48
2022-09-23T16:06:49.934Z,55.69
2022-09-23T16:09:23.674Z,55.96
2022-09-23T16:11:56.703Z,56.23
2022-09-23T16:14:29.894Z,56.52
2022-09-23T16:17:03.856Z,56.96
2022-09-23T16:19:36.531Z,57.15
2022-09-23T16:22:09.231Z,57.40
2022-09-23T16:24:44.650Z,57.60
2022-09-23T16:27:19.958Z,57.90
2022-09-23T16:29:52.652Z,58.23
2022-09-23T16:32:25.404Z,59.03
2022-09-23T16:34:59.032Z,59.00
2022-09-23T16:37:32.005Z,58.90
2022-09-23T16:40:08.119Z,58.97
2022-09-23T16:42:41.142Z,59.26
2022-09-23T16:45:17.387Z,59.52
2022-09-23T16:47:52.166Z,59.33
2022-09-23T16:50:27.384Z,59.16
2022-09-23T16:53:01.575Z,59.71
2022-09-23T16:55:35.843Z,59.61
2022-09-23T16:58:09.409Z,59.68
2022-09-23T17:01:05.595Z,60.25
2022-09-23T17:03:41.627Z,77.16
2022-09-23T17:06:16.336Z,97.41
2022-09-23T17:08:51.608Z,100.00
2022-09-23T17:11:25.086Z,96.38
2022-09-23T17:13:59.100Z,89.46
2022-09-23T17:16:34.403Z,93.05
2022-09-23T17:19:10.967Z,91.97
2022-09-23T17:21:43.579Z,92.88
2022-09-23T17:24:16.364Z,93.89
2022-09-23T17:26:52.818Z,93.27
2022-09-23T17:29:27.377Z,92.17
2022-09-23T17:32:00.634Z,89.89
2022-09-23T17:34:33.790Z,91.54
2022-09-23T17:37:07.086Z,92.49
2022-09-23T17:39:39.700Z,91.40
2022-09-23T17:42:12.634Z,91.04
2022-09-23T17:44:46.213Z,91.41
2022-09-23T17:47:18.925Z,92.03
2022-09-23T17:49:51.444Z,91.77
2022-09-23T17:52:24.066Z,91.23
2022-09-23T17:54:56.989Z,91.52
2022-09-23T17:57:30.296Z,90.49
2022-09-23T18:00:06.161Z,90.62
2022-09-23T18:02:46.786Z,91.00
2022-09-23T18:05:20.165Z,91.50
2022-09-23T18:07:54.583Z,91.75
2022-09-23T18:10:28.062Z,91.39
2022-09-23T18:13:00.879Z,91.80
2022-09-23T18:15:36.944Z,92.21
2022-09-23T18:18:09.854Z,92.40
2022-09-23T18:20:43.074Z,91.81
2022-09-23T18:23:17.027Z,89.41
2022-09-23T18:25:50.720Z,88.69
2022-09-23T18:28:23.564Z,88.61
2022-09-23T18:31:01.144Z,88.28
2022-09-23T18:33:33.841Z,88.18
2022-09-23T18:36:07.734Z,88.23
2022-09-23T18:38:41.102Z,88.00
2022-09-23T18:41:13.898Z,88.00
2022-09-23T18:43:48.686Z,87.75
2022-09-23T18:46:23.711Z,87.51
2022-09-23T18:49:15.187Z,87.31
2022-09-23T18:51:56.210Z,87.16
2022-09-23T18:54:32.112Z,86.90
2022-09-23T18:57:05.935Z,87.10
2022-09-23T18:59:38.816Z,87.27
2022-09-23T19:02:12.016Z,87.00
2022-09-23T19:04:44.743Z,85.17
2022-09-23T19:07:17.936Z,85.27
2022-09-23T19:09:50.712Z,85.58
2022-09-23T19:12:23.755Z,85.84
2022-09-23T19:14:56.790Z,85.82
2022-09-23T19:17:30.615Z,85.76
2022-09-23T19:20:03.947Z,85.83
2022-09-23T19:22:37.298Z,85.74
2022-09-23T19:25:11.067Z,85.88
2022-09-23T19:27:44.156Z,85.83
2022-09-23T19:30:18.352Z,85.87
2022-09-23T19:32:51.347Z,86.00
2022-09-23T19:35:24.699Z,86.05
2022-09-23T19:37:58.304Z,85.88
2022-09-23T19:40:31.730Z,85.99
2022-09-23T19:43:06.053Z,86.28
2022-09-23T19:45:39.003Z,85.73
2022-09-23T19:48:12.307Z,85.64
2022-09-23T19:50:48.116Z,85.91
2022-09-23T19:53:23.762Z,85.95
2022-09-23T19:56:05.475Z,85.72
2022-09-23T19:58:39.349Z,85.56
2022-09-23T20:01:12.255Z,85.72
2022-09-23T20:03:48.378Z,85.81
2022-09-23T20:06:22.057Z,85.46
2022-09-23T20:08:58.202Z,85.58
2022-09-23T20:11:31.849Z,85.45
2022-09-23T20:14:06.655Z,85.12
2022-09-23T20:16:44.123Z,85.06
2022-09-23T20:19:17.597Z,85.99
2022-09-23T20:22:11.491Z,87.43
2022-09-23T20:24:44.494Z,87.63
2022-09-23T20:27:17.270Z,88.58
2022-09-23T20:29:51.933Z,88.51
2022-09-23T20:32:25.248Z,88.39
2022-09-23T20:34:58.180Z,88.86
2022-09-23T20:37:31.082Z,89.22
2022-09-23T20:40:03.804Z,89.12
2022-09-23T20:42:36.581Z,88.79
2022-09-23T20:45:10.511Z,88.66
2022-09-23T20:47:43.654Z,88.91
2022-09-23T20:50:16.716Z,88.98
2022-09-23T20:52:49.540Z,89.11
2022-09-23T20:55:22.665Z,89.16
2022-09-23T20:57:56.325Z,89.00
2022-09-23T21:00:29.670Z,89.00
2022-09-23T21:03:03.016Z,89.02
2022-09-23T21:05:37.937Z,88.94
2022-09-23T21:08:10.788Z,89.10
2022-09-23T21:10:43.834Z,89.10
2022-09-23T21:13:21.716Z,88.74
2022-09-23T21:15:54.592Z,88.60
2022-09-23T21:18:27.160Z,88.83
2022-09-23T21:21:03.365Z,88.99
2022-09-23T21:23:38.525Z,89.12
2022-09-23T21:26:15.934Z,88.95
2022-09-23T21:28:50.287Z,89.09
2022-09-23T21:31:26.296Z,88.94
2022-09-23T21:34:06.871Z,89.08
2022-09-23T21:36:43.283Z,89.24
2022-09-23T21:39:16.407Z,89.15
2022-09-23T21:41:51.900Z,89.29
2022-09-23T21:44:25.308Z,89.18
2022-09-23T21:46:57.982Z,89.37
2022-09-23T21:49:32.887Z,89.42
2022-09-23T21:52:11.128Z,89.55
2022-09-23T21:54:43.944Z,89.67
2022-09-23T21:57:16.792Z,89.40
2022-09-23T21:59:49.980Z,89.47
2022-09-23T22:02:23.836Z,89.58
2022-09-23T22:04:56.387Z,89.59
2022-09-23T22:07:29.236Z,89.82
2022-09-23T22:10:01.829Z,89.92
2022-09-23T22:12:35.021Z,89.87
2022-09-23T22:15:08.099Z,89.47
2022-09-23T22:17:40.897Z,89.35
2022-09-23T22:20:13.866Z,89.40
2022-09-23T22:22:46.673Z,89.38
2022-09-23T22:25:20.291Z,89.10
2022-09-23T22:28:11.571Z,89.10
2022-09-23T22:31:05.797Z,89.40
2022-09-23T22:33:38.882Z,89.60
2022-09-23T22:36:13.315Z,89.67
2022-09-23T22:38:46.438Z,89.91
2022-09-23T22:41:21.907Z,90.00
2022-09-23T22:43:55.019Z,90.06
2022-09-23T22:46:28.435Z,90.12
2022-09-23T22:49:01.573Z,90.05
2022-09-23T22:51:34.150Z,90.16
2022-09-23T22:54:07.069Z,90.29
2022-09-23T22:56:39.947Z,90.37
2022-09-23T22:59:14.727Z,90.33
2022-09-23T23:01:47.710Z,90.34
2022-09-23T23:04:20.404Z,90.35
2022-09-23T23:06:53.237Z,90.28
2022-09-23T23:09:26.547Z,90.48
2022-09-23T23:11:59.357Z,90.41
2022-09-23T23:14:31.947Z,90.37
2022-09-23T23:17:08.116Z,90.36
2022-09-23T23:19:41.285Z,90.57
2022-09-23T23:22:14.143Z,90.59
2022-09-23T23:24:47.024Z,90.43
2022-09-23T23:27:19.556Z,90.45
2022-09-23T23:29:52.586Z,90.43
2022-09-23T23:32:25.685Z,90.39
2022-09-23T23:34:58.827Z,90.67
2022-09-23T23:37:32.367Z,90.60
2022-09-23T23:40:05.820Z,90.21
2022-09-23T23:42:38.735Z,90.28
2022-09-23T23:45:11.499Z,90.48
2022-09-23T23:47:44.461Z,90.28
2022-09-23T23:50:17.170Z,90.25
2022-09-23T23:52:49.780Z,90.43
2022-09-23T23:55:22.593Z,90.57
2022-09-23T23:57:56.345Z,90.53
